Friday, October 24, 2014, 7:58 AM EDT

KSBY, Salisbury-wicomico Cty Reg

Location: Salisbury, MD, United States Lat: 38.333
Local Time: 7:58 AM EDT (11:58 GMT) Lon: -75.5
Time Zone: US/Eastern Elev: 52 ft

Show me the last for .
Show Decoded

2014-10-24 06:54 METAR KSBY 241054Z 30007KT 10SM FEW040 13/06 A2989 RMK AO2 SLP124 T01330061 =
2014-10-24 05:54 METAR KSBY 240954Z 29006KT 10SM FEW044 14/06 A2988 RMK AO2 SLP121 T01390061 =
2014-10-24 04:54 METAR KSBY 240854Z AUTO 30007KT 10SM OVC048 14/08 A2987 RMK AO2 SLP118 T01440078
                 53007 =
2014-10-24 03:54 METAR KSBY 240754Z AUTO 25005KT 10SM OVC050 13/09 A2987 RMK AO2 SLP115 T01280089
                 =
2014-10-24 02:54 METAR KSBY 240654Z AUTO 26003KT 10SM CLR 12/08 A2986 RMK AO2 SLP112 T01220078 =
2014-10-24 01:54 METAR KSBY 240554Z AUTO 30006KT 10SM FEW060 14/08 A2985 RMK AO2 SLP111 T01440078
                 10156 20139 58004 =
2014-10-24 00:54 METAR KSBY 240454Z AUTO 29004KT 10SM SCT075 14/08 A2986 RMK AO2 SLP113 T01390078
                 401720117 =
2014-10-23 23:54 METAR KSBY 240354Z AUTO 33012G17KT 10SM OVC049 15/08 A2986 =
2014-10-23 22:54 METAR KSBY 240254Z AUTO 34008KT 10SM OVC049 15/08 A2987 RMK AO2 SLP115 T01500083
                 53008 =
2014-10-23 21:54 METAR KSBY 240154Z 34009KT 10SM OVC047 15/08 A2985 RMK AO2 SLP111 T01500083 =
2014-10-23 20:54 METAR KSBY 240054Z 34011KT 10SM SCT043 16/08 A2984 RMK AO2 SLP107 T01560083 =
2014-10-23 19:54 METAR KSBY 232354Z 32014G19KT 10SM BKN045 15/08 A2984 RMK AO2 SLP106 T01500083
                 10172 20150 51017 =
2014-10-23 18:54 METAR KSBY 232254Z 33009KT 10SM OVC040 16/09 A2984 RMK AO2 SLP106 T01560089 =
2014-10-23 17:54 METAR KSBY 232154Z 34006KT 10SM OVC037 16/09 A2981 RMK AO2 SLP097 T01560089 =
2014-10-23 16:54 METAR KSBY 232054Z 31008KT 10SM OVC037 16/08 A2979 RMK AO2 SLP089 T01610083
                 53001 =
2014-10-23 15:54 METAR KSBY 231954Z 32012G19KT 10SM OVC035 17/08 A2979 RMK AO2 SLP089 T01670078 =
2014-10-23 14:54 METAR KSBY 231854Z 31010G26KT 10SM OVC035 17/08 A2978 RMK AO2 PK WND 30026/1848
                 SLP086 T01670078 =
2014-10-23 13:54 METAR KSBY 231754Z 32011G20KT 10SM OVC031 16/08 A2979 RMK AO2 SLP088 60000
                 T01610083 10161 20128 58013 =
2014-10-23 13:10 METAR KSBY 231710Z 32017G21KT 10SM OVC031 16/08 A2980 RMK AO2 =
2014-10-23 12:54 METAR KSBY 231654Z 31013G19KT 10SM OVC029 16/08 A2981 RMK AO2 SLP095 T01560078 =
2014-10-23 12:41 METAR KSBY 231641Z 32011KT 10SM BKN026 OVC031 16/08 A2981 =
2014-10-23 12:18 METAR KSBY 231618Z 32016G21KT 10SM FEW024 OVC032 15/08 A2981 =
2014-10-23 11:54 METAR KSBY 231554Z 30016G23KT 10SM OVC027 14/08 A2981 RMK AO2 SLP098 T01440083 =
2014-10-23 10:54 METAR KSBY 231454Z 30013G23KT 10SM BKN024 OVC029 13/08 A2982 RMK AO2 RAB33E42
                 SLP101 P0000 60000 T01330078 53005 =
2014-10-23 09:54 METAR KSBY 231354Z 30008G17KT 10SM OVC029 14/07 A2982 RMK AO2 SLP099 T01390072 =
2014-10-23 09:06 METAR KSBY 231306Z 31014G18KT 10SM OVC029 14/07 A2981 RMK AO2 =
2014-10-23 08:54 METAR KSBY 231254Z 30010G17KT 10SM OVC031 13/07 A2981 RMK AO2 SLP096 T01330072 =

Support USWX by starting your Amazon purchase here.